sensor_id;sensor_type;location;lat;lon;timestamp;P1;durP1;ratioP1;P2;durP2;ratioP2
826;SDS011;395;48.132;11.608;2023-04-29T00:01:11;0.60;;;0.53;;
826;SDS011;395;48.132;11.608;2023-04-29T00:03:37;0.77;;;0.77;;
826;SDS011;395;48.132;11.608;2023-04-29T00:06:03;1.10;;;0.70;;
826;SDS011;395;48.132;11.608;2023-04-29T00:08:29;1.43;;;0.70;;
826;SDS011;395;48.132;11.608;2023-04-29T00:10:54;0.70;;;0.60;;
826;SDS011;395;48.132;11.608;2023-04-29T00:13:20;1.43;;;0.80;;
826;SDS011;395;48.132;11.608;2023-04-29T00:15:46;1.07;;;0.97;;
826;SDS011;395;48.132;11.608;2023-04-29T00:18:12;0.60;;;0.60;;
826;SDS011;395;48.132;11.608;2023-04-29T00:20:38;1.67;;;0.80;;
826;SDS011;395;48.132;11.608;2023-04-29T00:23:04;0.80;;;0.67;;
826;SDS011;395;48.132;11.608;2023-04-29T00:25:30;0.60;;;0.60;;
826;SDS011;395;48.132;11.608;2023-04-29T00:27:56;0.90;;;0.70;;
826;SDS011;395;48.132;11.608;2023-04-29T00:30:25;0.87;;;0.73;;
826;SDS011;395;48.132;11.608;2023-04-29T00:32:52;1.10;;;0.70;;
826;SDS011;395;48.132;11.608;2023-04-29T00:35:19;0.60;;;0.60;;
826;SDS011;395;48.132;11.608;2023-04-29T00:37:45;0.97;;;0.50;;
826;SDS011;395;48.132;11.608;2023-04-29T00:40:10;0.93;;;0.80;;
826;SDS011;395;48.132;11.608;2023-04-29T00:42:39;0.93;;;0.60;;
826;SDS011;395;48.132;11.608;2023-04-29T00:45:05;0.53;;;0.53;;
826;SDS011;395;48.132;11.608;2023-04-29T00:47:31;3.10;;;0.97;;
826;SDS011;395;48.132;11.608;2023-04-29T00:49:56;0.60;;;0.60;;
826;SDS011;395;48.132;11.608;2023-04-29T00:52:22;0.80;;;0.80;;
826;SDS011;395;48.132;11.608;2023-04-29T00:54:48;0.80;;;0.70;;
826;SDS011;395;48.132;11.608;2023-04-29T00:57:16;0.80;;;0.67;;
826;SDS011;395;48.132;11.608;2023-04-29T00:59:43;0.70;;;0.70;;
826;SDS011;395;48.132;11.608;2023-04-29T01:02:09;0.80;;;0.63;;
826;SDS011;395;48.132;11.608;2023-04-29T01:04:36;1.27;;;0.77;;
826;SDS011;395;48.132;11.608;2023-04-29T01:12:18;1.33;;;0.90;;
826;SDS011;395;48.132;11.608;2023-04-29T01:15:21;0.83;;;0.80;;
826;SDS011;395;48.132;11.608;2023-04-29T01:17:59;0.80;;;0.80;;
826;SDS011;395;48.132;11.608;2023-04-29T01:20:28;1.53;;;0.70;;
826;SDS011;395;48.132;11.608;2023-04-29T01:22:55;1.00;;;0.90;;
826;SDS011;395;48.132;11.608;2023-04-29T01:25:21;2.20;;;0.83;;
826;SDS011;395;48.132;11.608;2023-04-29T01:27:51;1.40;;;1.07;;
826;SDS011;395;48.132;11.608;2023-04-29T01:30:48;1.00;;;0.90;;
826;SDS011;395;48.132;11.608;2023-04-29T01:33:22;0.73;;;0.70;;
826;SDS011;395;48.132;11.608;2023-04-29T01:38:46;1.50;;;0.90;;
826;SDS011;395;48.132;11.608;2023-04-29T01:41:42;1.60;;;0.70;;
826;SDS011;395;48.132;11.608;2023-04-29T01:44:12;2.27;;;0.90;;
826;SDS011;395;48.132;11.608;2023-04-29T01:46:46;1.10;;;0.90;;
826;SDS011;395;48.132;11.608;2023-04-29T01:49:18;0.70;;;0.70;;
826;SDS011;395;48.132;11.608;2023-04-29T01:51:52;1.00;;;0.87;;
826;SDS011;395;48.132;11.608;2023-04-29T01:54:18;1.53;;;0.70;;
826;SDS011;395;48.132;11.608;2023-04-29T01:56:44;1.40;;;1.00;;
826;SDS011;395;48.132;11.608;2023-04-29T01:59:10;1.00;;;0.90;;
826;SDS011;395;48.132;11.608;2023-04-29T02:01:36;1.63;;;1.20;;
826;SDS011;395;48.132;11.608;2023-04-29T02:04:01;1.10;;;0.90;;
826;SDS011;395;48.132;11.608;2023-04-29T02:06:27;1.63;;;1.00;;
826;SDS011;395;48.132;11.608;2023-04-29T02:08:56;1.03;;;0.97;;
826;SDS011;395;48.132;11.608;2023-04-29T02:11:22;1.13;;;0.93;;
826;SDS011;395;48.132;11.608;2023-04-29T02:13:47;1.10;;;0.97;;
826;SDS011;395;48.132;11.608;2023-04-29T02:16:13;1.77;;;0.93;;
826;SDS011;395;48.132;11.608;2023-04-29T02:18:40;1.43;;;1.10;;
826;SDS011;395;48.132;11.608;2023-04-29T02:21:06;0.90;;;0.70;;
826;SDS011;395;48.132;11.608;2023-04-29T02:23:32;3.80;;;2.30;;
826;SDS011;395;48.132;11.608;2023-04-29T02:25:59;1.00;;;0.90;;
826;SDS011;395;48.132;11.608;2023-04-29T02:28:25;1.33;;;1.07;;
826;SDS011;395;48.132;11.608;2023-04-29T02:30:51;1.00;;;0.80;;
826;SDS011;395;48.132;11.608;2023-04-29T02:33:17;1.23;;;1.13;;
826;SDS011;395;48.132;11.608;2023-04-29T02:35:43;1.03;;;0.80;;
826;SDS011;395;48.132;11.608;2023-04-29T02:38:09;1.53;;;0.90;;
826;SDS011;395;48.132;11.608;2023-04-29T02:40:42;0.70;;;0.70;;
826;SDS011;395;48.132;11.608;2023-04-29T02:43:08;2.10;;;0.90;;
826;SDS011;395;48.132;11.608;2023-04-29T02:45:34;1.20;;;1.10;;
826;SDS011;395;48.132;11.608;2023-04-29T02:48:00;0.87;;;0.87;;
826;SDS011;395;48.132;11.608;2023-04-29T02:50:26;1.10;;;1.03;;
826;SDS011;395;48.132;11.608;2023-04-29T02:52:52;1.10;;;1.00;;
826;SDS011;395;48.132;11.608;2023-04-29T02:55:18;0.97;;;0.90;;
826;SDS011;395;48.132;11.608;2023-04-29T02:57:44;1.10;;;1.00;;
826;SDS011;395;48.132;11.608;2023-04-29T03:00:10;1.63;;;1.37;;
826;SDS011;395;48.132;11.608;2023-04-29T03:02:36;1.30;;;1.10;;
826;SDS011;395;48.132;11.608;2023-04-29T03:05:02;1.50;;;1.40;;
826;SDS011;395;48.132;11.608;2023-04-29T03:07:28;1.50;;;1.30;;
826;SDS011;395;48.132;11.608;2023-04-29T03:09:54;1.20;;;1.10;;
826;SDS011;395;48.132;11.608;2023-04-29T03:12:20;2.60;;;1.17;;
826;SDS011;395;48.132;11.608;2023-04-29T03:14:46;1.30;;;1.20;;
826;SDS011;395;48.132;11.608;2023-04-29T03:17:12;1.97;;;1.33;;
826;SDS011;395;48.132;11.608;2023-04-29T03:19:38;1.30;;;1.20;;
826;SDS011;395;48.132;11.608;2023-04-29T03:22:03;1.60;;;1.23;;
826;SDS011;395;48.132;11.608;2023-04-29T03:24:30;1.33;;;1.23;;
826;SDS011;395;48.132;11.608;2023-04-29T03:26:56;1.47;;;1.37;;
826;SDS011;395;48.132;11.608;2023-04-29T03:29:24;1.53;;;1.43;;
826;SDS011;395;48.132;11.608;2023-04-29T03:31:50;1.60;;;1.50;;
826;SDS011;395;48.132;11.608;2023-04-29T03:34:16;1.50;;;1.40;;
826;SDS011;395;48.132;11.608;2023-04-29T03:36:41;1.60;;;1.50;;
826;SDS011;395;48.132;11.608;2023-04-29T03:39:07;1.93;;;1.47;;
826;SDS011;395;48.132;11.608;2023-04-29T03:41:33;1.60;;;1.40;;
826;SDS011;395;48.132;11.608;2023-04-29T03:43:59;1.63;;;1.40;;
826;SDS011;395;48.132;11.608;2023-04-29T03:46:25;1.40;;;1.30;;
826;SDS011;395;48.132;11.608;2023-04-29T03:48:51;3.53;;;1.40;;
826;SDS011;395;48.132;11.608;2023-04-29T03:51:20;2.40;;;1.43;;
826;SDS011;395;48.132;11.608;2023-04-29T03:53:49;1.43;;;1.30;;
826;SDS011;395;48.132;11.608;2023-04-29T03:56:16;1.70;;;1.60;;
826;SDS011;395;48.132;11.608;2023-04-29T03:58:42;1.30;;;1.20;;
826;SDS011;395;48.132;11.608;2023-04-29T04:01:07;2.37;;;1.40;;
826;SDS011;395;48.132;11.608;2023-04-29T04:03:33;1.60;;;1.50;;
826;SDS011;395;48.132;11.608;2023-04-29T04:05:59;1.60;;;1.50;;
826;SDS011;395;48.132;11.608;2023-04-29T04:08:25;1.63;;;1.53;;
826;SDS011;395;48.132;11.608;2023-04-29T04:10:51;1.90;;;1.70;;
826;SDS011;395;48.132;11.608;2023-04-29T04:13:16;3.63;;;1.80;;
826;SDS011;395;48.132;11.608;2023-04-29T04:15:47;1.30;;;1.20;;
826;SDS011;395;48.132;11.608;2023-04-29T04:18:15;1.57;;;1.47;;
826;SDS011;395;48.132;11.608;2023-04-29T04:20:40;1.87;;;1.50;;
826;SDS011;395;48.132;11.608;2023-04-29T04:23:06;2.40;;;1.50;;
826;SDS011;395;48.132;11.608;2023-04-29T04:25:32;1.93;;;1.50;;
826;SDS011;395;48.132;11.608;2023-04-29T04:27:57;1.90;;;1.73;;
826;SDS011;395;48.132;11.608;2023-04-29T04:30:23;2.37;;;1.97;;
826;SDS011;395;48.132;11.608;2023-04-29T04:32:48;2.33;;;1.67;;
826;SDS011;395;48.132;11.608;2023-04-29T04:35:14;2.10;;;1.90;;
826;SDS011;395;48.132;11.608;2023-04-29T04:37:40;1.50;;;1.40;;
826;SDS011;395;48.132;11.608;2023-04-29T04:40:06;3.57;;;2.07;;
826;SDS011;395;48.132;11.608;2023-04-29T04:42:32;3.20;;;2.07;;
826;SDS011;395;48.132;11.608;2023-04-29T04:44:58;1.73;;;1.63;;
826;SDS011;395;48.132;11.608;2023-04-29T04:47:23;2.20;;;2.00;;
826;SDS011;395;48.132;11.608;2023-04-29T04:49:49;2.47;;;2.20;;
826;SDS011;395;48.132;11.608;2023-04-29T04:52:18;2.17;;;2.07;;
826;SDS011;395;48.132;11.608;2023-04-29T04:54:45;1.90;;;1.80;;
826;SDS011;395;48.132;11.608;2023-04-29T04:57:11;2.23;;;2.03;;
826;SDS011;395;48.132;11.608;2023-04-29T04:59:37;2.17;;;2.07;;
826;SDS011;395;48.132;11.608;2023-04-29T05:02:02;1.93;;;1.83;;
826;SDS011;395;48.132;11.608;2023-04-29T05:04:28;2.90;;;2.70;;
826;SDS011;395;48.132;11.608;2023-04-29T05:06:53;2.40;;;2.20;;
826;SDS011;395;48.132;11.608;2023-04-29T05:09:19;3.87;;;2.40;;
826;SDS011;395;48.132;11.608;2023-04-29T05:11:45;2.53;;;2.27;;
826;SDS011;395;48.132;11.608;2023-04-29T05:14:10;2.57;;;2.37;;
826;SDS011;395;48.132;11.608;2023-04-29T05:16:36;2.43;;;2.23;;
826;SDS011;395;48.132;11.608;2023-04-29T05:19:02;2.37;;;2.17;;
826;SDS011;395;48.132;11.608;2023-04-29T05:21:28;2.60;;;2.40;;
826;SDS011;395;48.132;11.608;2023-04-29T05:23:53;2.77;;;2.57;;
826;SDS011;395;48.132;11.608;2023-04-29T05:26:19;2.13;;;2.00;;
826;SDS011;395;48.132;11.608;2023-04-29T05:28:45;2.97;;;2.67;;
826;SDS011;395;48.132;11.608;2023-04-29T05:31:10;4.73;;;2.23;;
826;SDS011;395;48.132;11.608;2023-04-29T05:33:36;2.10;;;2.00;;
826;SDS011;395;48.132;11.608;2023-04-29T05:36:02;2.93;;;2.43;;
826;SDS011;395;48.132;11.608;2023-04-29T05:38:28;3.07;;;2.20;;
826;SDS011;395;48.132;11.608;2023-04-29T05:40:56;3.00;;;2.20;;
826;SDS011;395;48.132;11.608;2023-04-29T05:43:22;4.23;;;2.40;;
826;SDS011;395;48.132;11.608;2023-04-29T05:45:48;2.13;;;2.03;;
826;SDS011;395;48.132;11.608;2023-04-29T05:48:14;2.30;;;2.10;;
826;SDS011;395;48.132;11.608;2023-04-29T05:50:39;2.43;;;2.23;;
826;SDS011;395;48.132;11.608;2023-04-29T05:53:05;2.87;;;2.50;;
826;SDS011;395;48.132;11.608;2023-04-29T05:55:31;3.20;;;2.67;;
826;SDS011;395;48.132;11.608;2023-04-29T05:57:57;3.20;;;2.70;;
826;SDS011;395;48.132;11.608;2023-04-29T06:00:22;2.50;;;2.30;;
826;SDS011;395;48.132;11.608;2023-04-29T06:02:48;2.60;;;2.40;;
826;SDS011;395;48.132;11.608;2023-04-29T06:05:13;3.13;;;2.73;;
826;SDS011;395;48.132;11.608;2023-04-29T06:07:39;2.70;;;2.50;;
826;SDS011;395;48.132;11.608;2023-04-29T06:10:07;2.77;;;2.57;;
826;SDS011;395;48.132;11.608;2023-04-29T06:12:33;3.00;;;2.70;;
826;SDS011;395;48.132;11.608;2023-04-29T06:14:59;2.70;;;2.20;;
826;SDS011;395;48.132;11.608;2023-04-29T06:17:25;3.00;;;2.80;;
826;SDS011;395;48.132;11.608;2023-04-29T06:19:53;3.10;;;2.80;;
826;SDS011;395;48.132;11.608;2023-04-29T06:22:19;3.00;;;2.80;;
826;SDS011;395;48.132;11.608;2023-04-29T06:24:45;3.30;;;3.00;;
826;SDS011;395;48.132;11.608;2023-04-29T06:27:13;4.07;;;3.20;;
826;SDS011;395;48.132;11.608;2023-04-29T06:29:42;3.27;;;3.07;;
826;SDS011;395;48.132;11.608;2023-04-29T06:32:08;3.10;;;2.80;;
826;SDS011;395;48.132;11.608;2023-04-29T06:34:33;3.50;;;3.20;;
826;SDS011;395;48.132;11.608;2023-04-29T06:37:00;3.83;;;3.53;;
826;SDS011;395;48.132;11.608;2023-04-29T06:39:25;4.70;;;3.57;;
826;SDS011;395;48.132;11.608;2023-04-29T06:41:51;3.87;;;3.57;;
826;SDS011;395;48.132;11.608;2023-04-29T06:44:17;4.70;;;3.70;;
826;SDS011;395;48.132;11.608;2023-04-29T06:46:43;4.50;;;4.10;;
826;SDS011;395;48.132;11.608;2023-04-29T06:49:09;4.27;;;3.97;;
826;SDS011;395;48.132;11.608;2023-04-29T06:51:38;4.20;;;3.80;;
826;SDS011;395;48.132;11.608;2023-04-29T06:54:03;4.60;;;4.20;;
826;SDS011;395;48.132;11.608;2023-04-29T06:56:29;5.03;;;4.63;;
826;SDS011;395;48.132;11.608;2023-04-29T06:58:55;4.77;;;4.37;;
826;SDS011;395;48.132;11.608;2023-04-29T07:01:20;8.67;;;5.10;;
826;SDS011;395;48.132;11.608;2023-04-29T07:03:46;5.07;;;4.67;;
826;SDS011;395;48.132;11.608;2023-04-29T07:06:12;5.20;;;4.20;;
826;SDS011;395;48.132;11.608;2023-04-29T07:08:37;4.60;;;4.20;;
826;SDS011;395;48.132;11.608;2023-04-29T07:11:03;5.13;;;4.73;;
826;SDS011;395;48.132;11.608;2023-04-29T07:13:29;4.83;;;4.43;;
826;SDS011;395;48.132;11.608;2023-04-29T07:15:54;4.73;;;4.17;;
826;SDS011;395;48.132;11.608;2023-04-29T07:18:20;5.20;;;4.23;;
826;SDS011;395;48.132;11.608;2023-04-29T07:20:46;4.57;;;3.93;;
826;SDS011;395;48.132;11.608;2023-04-29T07:23:12;4.17;;;3.83;;
826;SDS011;395;48.132;11.608;2023-04-29T07:25:39;4.33;;;3.93;;
826;SDS011;395;48.132;11.608;2023-04-29T07:28:05;6.13;;;4.80;;
826;SDS011;395;48.132;11.608;2023-04-29T07:30:32;4.43;;;4.03;;
826;SDS011;395;48.132;11.608;2023-04-29T07:32:58;9.03;;;4.80;;
826;SDS011;395;48.132;11.608;2023-04-29T07:35:24;4.47;;;4.17;;
826;SDS011;395;48.132;11.608;2023-04-29T07:37:50;4.57;;;4.00;;
826;SDS011;395;48.132;11.608;2023-04-29T07:40:15;4.60;;;4.20;;
826;SDS011;395;48.132;11.608;2023-04-29T07:42:41;5.40;;;4.80;;
826;SDS011;395;48.132;11.608;2023-04-29T07:45:07;5.47;;;4.40;;
826;SDS011;395;48.132;11.608;2023-04-29T07:47:33;5.00;;;4.50;;
826;SDS011;395;48.132;11.608;2023-04-29T07:49:59;5.57;;;4.37;;
826;SDS011;395;48.132;11.608;2023-04-29T07:52:25;5.63;;;5.03;;
826;SDS011;395;48.132;11.608;2023-04-29T07:54:50;6.40;;;4.20;;
826;SDS011;395;48.132;11.608;2023-04-29T07:57:16;5.43;;;4.70;;
826;SDS011;395;48.132;11.608;2023-04-29T07:59:42;4.77;;;4.37;;
826;SDS011;395;48.132;11.608;2023-04-29T08:02:07;4.43;;;4.03;;
826;SDS011;395;48.132;11.608;2023-04-29T08:04:33;4.67;;;4.13;;
826;SDS011;395;48.132;11.608;2023-04-29T08:06:58;4.40;;;4.00;;
826;SDS011;395;48.132;11.608;2023-04-29T08:09:24;4.17;;;3.77;;
826;SDS011;395;48.132;11.608;2023-04-29T08:11:50;4.13;;;3.50;;
826;SDS011;395;48.132;11.608;2023-04-29T08:14:16;12.33;;;3.10;;
826;SDS011;395;48.132;11.608;2023-04-29T08:16:41;3.40;;;3.10;;
826;SDS011;395;48.132;11.608;2023-04-29T08:19:07;3.70;;;3.40;;
826;SDS011;395;48.132;11.608;2023-04-29T08:21:32;3.87;;;3.57;;
826;SDS011;395;48.132;11.608;2023-04-29T08:23:59;4.37;;;3.83;;
826;SDS011;395;48.132;11.608;2023-04-29T08:26:25;3.37;;;3.10;;
826;SDS011;395;48.132;11.608;2023-04-29T08:28:51;4.37;;;3.97;;
826;SDS011;395;48.132;11.608;2023-04-29T08:31:17;3.47;;;3.17;;
826;SDS011;395;48.132;11.608;2023-04-29T08:33:43;3.50;;;3.20;;
826;SDS011;395;48.132;11.608;2023-04-29T08:36:10;3.20;;;2.90;;
826;SDS011;395;48.132;11.608;2023-04-29T08:38:36;3.03;;;2.83;;
826;SDS011;395;48.132;11.608;2023-04-29T08:41:02;2.60;;;2.40;;
826;SDS011;395;48.132;11.608;2023-04-29T08:43:28;3.20;;;2.90;;
826;SDS011;395;48.132;11.608;2023-04-29T08:45:53;3.33;;;3.13;;
826;SDS011;395;48.132;11.608;2023-04-29T08:48:21;2.70;;;2.50;;
826;SDS011;395;48.132;11.608;2023-04-29T08:50:47;3.13;;;2.80;;
826;SDS011;395;48.132;11.608;2023-04-29T08:53:13;4.00;;;3.70;;
826;SDS011;395;48.132;11.608;2023-04-29T08:55:48;3.10;;;2.60;;
826;SDS011;395;48.132;11.608;2023-04-29T08:58:14;2.70;;;2.50;;
826;SDS011;395;48.132;11.608;2023-04-29T09:00:41;2.67;;;2.30;;
826;SDS011;395;48.132;11.608;2023-04-29T09:03:13;3.30;;;2.77;;
826;SDS011;395;48.132;11.608;2023-04-29T09:05:44;2.80;;;2.60;;
826;SDS011;395;48.132;11.608;2023-04-29T09:08:14;3.93;;;2.60;;
826;SDS011;395;48.132;11.608;2023-04-29T09:10:41;2.63;;;2.40;;
826;SDS011;395;48.132;11.608;2023-04-29T09:13:07;2.33;;;2.17;;
826;SDS011;395;48.132;11.608;2023-04-29T09:15:36;2.50;;;2.30;;
826;SDS011;395;48.132;11.608;2023-04-29T09:18:04;2.10;;;1.90;;
826;SDS011;395;48.132;11.608;2023-04-29T09:20:30;2.40;;;2.20;;
826;SDS011;395;48.132;11.608;2023-04-29T09:22:59;2.60;;;2.40;;
826;SDS011;395;48.132;11.608;2023-04-29T09:25:27;2.43;;;2.23;;
826;SDS011;395;48.132;11.608;2023-04-29T09:27:53;4.23;;;2.40;;
826;SDS011;395;48.132;11.608;2023-04-29T09:30:20;3.10;;;2.30;;
826;SDS011;395;48.132;11.608;2023-04-29T09:33:02;2.10;;;2.00;;
826;SDS011;395;48.132;11.608;2023-04-29T09:35:32;2.40;;;2.20;;
826;SDS011;395;48.132;11.608;2023-04-29T09:38:08;2.80;;;2.10;;
826;SDS011;395;48.132;11.608;2023-04-29T09:40:35;2.43;;;1.90;;
826;SDS011;395;48.132;11.608;2023-04-29T09:43:01;3.60;;;2.13;;
826;SDS011;395;48.132;11.608;2023-04-29T09:45:36;2.27;;;2.07;;
826;SDS011;395;48.132;11.608;2023-04-29T09:48:04;2.37;;;1.73;;
826;SDS011;395;48.132;11.608;2023-04-29T09:50:31;1.90;;;1.80;;
826;SDS011;395;48.132;11.608;2023-04-29T09:52:57;3.20;;;2.23;;
826;SDS011;395;48.132;11.608;2023-04-29T09:55:23;4.23;;;2.17;;
826;SDS011;395;48.132;11.608;2023-04-29T09:57:49;3.30;;;2.10;;
826;SDS011;395;48.132;11.608;2023-04-29T10:00:14;2.30;;;2.10;;
826;SDS011;395;48.132;11.608;2023-04-29T10:02:41;4.10;;;1.80;;
826;SDS011;395;48.132;11.608;2023-04-29T10:05:09;2.50;;;1.70;;
826;SDS011;395;48.132;11.608;2023-04-29T10:07:37;2.20;;;1.90;;
826;SDS011;395;48.132;11.608;2023-04-29T10:10:04;2.43;;;2.00;;
826;SDS011;395;48.132;11.608;2023-04-29T10:12:32;2.00;;;1.80;;
826;SDS011;395;48.132;11.608;2023-04-29T10:20:21;2.90;;;2.30;;
826;SDS011;395;48.132;11.608;2023-04-29T10:22:49;3.50;;;2.33;;
826;SDS011;395;48.132;11.608;2023-04-29T10:25:16;2.63;;;2.43;;
826;SDS011;395;48.132;11.608;2023-04-29T10:27:44;2.73;;;2.50;;
826;SDS011;395;48.132;11.608;2023-04-29T10:30:11;3.30;;;2.87;;
826;SDS011;395;48.132;11.608;2023-04-29T10:32:41;3.47;;;3.17;;
826;SDS011;395;48.132;11.608;2023-04-29T10:35:12;3.80;;;3.33;;
826;SDS011;395;48.132;11.608;2023-04-29T10:37:39;2.77;;;2.57;;
826;SDS011;395;48.132;11.608;2023-04-29T10:42:47;4.07;;;3.37;;
826;SDS011;395;48.132;11.608;2023-04-29T10:45:20;3.47;;;3.10;;
826;SDS011;395;48.132;11.608;2023-04-29T10:53:11;2.90;;;2.70;;
826;SDS011;395;48.132;11.608;2023-04-29T10:55:38;2.60;;;2.20;;
826;SDS011;395;48.132;11.608;2023-04-29T10:58:05;2.70;;;2.30;;
826;SDS011;395;48.132;11.608;2023-04-29T11:00:57;2.60;;;2.40;;
826;SDS011;395;48.132;11.608;2023-04-29T11:06:19;2.70;;;2.50;;
826;SDS011;395;48.132;11.608;2023-04-29T11:08:58;2.93;;;2.63;;
826;SDS011;395;48.132;11.608;2023-04-29T11:11:47;2.40;;;2.20;;
826;SDS011;395;48.132;11.608;2023-04-29T11:14:13;2.40;;;2.20;;
826;SDS011;395;48.132;11.608;2023-04-29T11:16:46;2.67;;;2.43;;
826;SDS011;395;48.132;11.608;2023-04-29T11:19:15;2.63;;;2.43;;
826;SDS011;395;48.132;11.608;2023-04-29T11:21:42;4.00;;;2.17;;
826;SDS011;395;48.132;11.608;2023-04-29T11:24:10;3.20;;;2.57;;
826;SDS011;395;48.132;11.608;2023-04-29T11:26:36;2.10;;;2.00;;
826;SDS011;395;48.132;11.608;2023-04-29T11:29:03;2.30;;;2.10;;
826;SDS011;395;48.132;11.608;2023-04-29T11:31:30;2.93;;;2.40;;
826;SDS011;395;48.132;11.608;2023-04-29T11:33:56;2.20;;;2.00;;
826;SDS011;395;48.132;11.608;2023-04-29T11:36:23;2.13;;;1.80;;
826;SDS011;395;48.132;11.608;2023-04-29T11:38:48;2.20;;;2.10;;
826;SDS011;395;48.132;11.608;2023-04-29T11:41:14;2.40;;;2.10;;
826;SDS011;395;48.132;11.608;2023-04-29T11:43:40;3.70;;;2.90;;
826;SDS011;395;48.132;11.608;2023-04-29T11:46:11;2.13;;;2.00;;
826;SDS011;395;48.132;11.608;2023-04-29T11:48:44;2.10;;;1.90;;
826;SDS011;395;48.132;11.608;2023-04-29T11:51:11;2.47;;;2.27;;
826;SDS011;395;48.132;11.608;2023-04-29T11:53:38;1.60;;;1.50;;
826;SDS011;395;48.132;11.608;2023-04-29T11:56:04;3.37;;;2.03;;
826;SDS011;395;48.132;11.608;2023-04-29T11:58:30;2.07;;;1.93;;
826;SDS011;395;48.132;11.608;2023-04-29T12:00:57;1.50;;;1.40;;
826;SDS011;395;48.132;11.608;2023-04-29T12:03:23;1.60;;;1.50;;
826;SDS011;395;48.132;11.608;2023-04-29T12:08:27;2.30;;;1.40;;
826;SDS011;395;48.132;11.608;2023-04-29T12:10:55;2.00;;;1.20;;
826;SDS011;395;48.132;11.608;2023-04-29T12:13:25;1.40;;;1.30;;
826;SDS011;395;48.132;11.608;2023-04-29T12:15:53;3.00;;;1.40;;
826;SDS011;395;48.132;11.608;2023-04-29T12:18:19;1.77;;;1.67;;
826;SDS011;395;48.132;11.608;2023-04-29T12:20:47;2.73;;;1.60;;
826;SDS011;395;48.132;11.608;2023-04-29T12:23:22;2.57;;;1.60;;
826;SDS011;395;48.132;11.608;2023-04-29T12:25:54;1.60;;;1.50;;
826;SDS011;395;48.132;11.608;2023-04-29T12:28:22;1.60;;;1.50;;
826;SDS011;395;48.132;11.608;2023-04-29T12:30:49;1.60;;;1.50;;
826;SDS011;395;48.132;11.608;2023-04-29T12:33:34;2.00;;;1.80;;
826;SDS011;395;48.132;11.608;2023-04-29T12:36:00;1.80;;;1.67;;
826;SDS011;395;48.132;11.608;2023-04-29T12:38:27;2.20;;;2.00;;
826;SDS011;395;48.132;11.608;2023-04-29T12:40:57;1.80;;;1.70;;
826;SDS011;395;48.132;11.608;2023-04-29T12:43:33;1.97;;;1.70;;
826;SDS011;395;48.132;11.608;2023-04-29T12:46:03;2.07;;;1.70;;
826;SDS011;395;48.132;11.608;2023-04-29T12:48:34;1.73;;;1.50;;
826;SDS011;395;48.132;11.608;2023-04-29T12:51:02;2.17;;;2.07;;
826;SDS011;395;48.132;11.608;2023-04-29T12:53:29;1.80;;;1.70;;
826;SDS011;395;48.132;11.608;2023-04-29T12:55:55;1.87;;;1.77;;
826;SDS011;395;48.132;11.608;2023-04-29T12:58:21;1.73;;;1.63;;
826;SDS011;395;48.132;11.608;2023-04-29T13:00:47;1.57;;;1.47;;
826;SDS011;395;48.132;11.608;2023-04-29T13:03:13;1.90;;;1.80;;
826;SDS011;395;48.132;11.608;2023-04-29T13:05:39;1.67;;;1.57;;
826;SDS011;395;48.132;11.608;2023-04-29T13:08:05;1.37;;;1.27;;
826;SDS011;395;48.132;11.608;2023-04-29T13:10:31;1.80;;;1.40;;
826;SDS011;395;48.132;11.608;2023-04-29T13:12:57;1.80;;;1.70;;
826;SDS011;395;48.132;11.608;2023-04-29T13:15:23;2.00;;;1.60;;
826;SDS011;395;48.132;11.608;2023-04-29T13:17:50;1.90;;;1.80;;
826;SDS011;395;48.132;11.608;2023-04-29T13:20:15;3.60;;;1.50;;
826;SDS011;395;48.132;11.608;2023-04-29T13:22:42;1.67;;;1.53;;
826;SDS011;395;48.132;11.608;2023-04-29T13:25:08;1.40;;;1.30;;
826;SDS011;395;48.132;11.608;2023-04-29T13:27:35;1.50;;;1.40;;
826;SDS011;395;48.132;11.608;2023-04-29T13:30:01;1.07;;;1.07;;
826;SDS011;395;48.132;11.608;2023-04-29T13:32:27;2.10;;;1.50;;
826;SDS011;395;48.132;11.608;2023-04-29T13:34:53;1.23;;;1.10;;
826;SDS011;395;48.132;11.608;2023-04-29T13:37:18;1.00;;;1.00;;
826;SDS011;395;48.132;11.608;2023-04-29T13:39:44;1.13;;;1.13;;
826;SDS011;395;48.132;11.608;2023-04-29T13:42:10;1.70;;;1.43;;
826;SDS011;395;48.132;11.608;2023-04-29T13:44:35;1.50;;;1.40;;
826;SDS011;395;48.132;11.608;2023-04-29T13:47:02;1.20;;;1.10;;
826;SDS011;395;48.132;11.608;2023-04-29T13:49:30;1.53;;;1.00;;
826;SDS011;395;48.132;11.608;2023-04-29T13:51:56;1.10;;;1.00;;
826;SDS011;395;48.132;11.608;2023-04-29T13:54:22;1.07;;;0.97;;
826;SDS011;395;48.132;11.608;2023-04-29T13:56:48;1.43;;;1.20;;
826;SDS011;395;48.132;11.608;2023-04-29T13:59:14;0.97;;;0.97;;
826;SDS011;395;48.132;11.608;2023-04-29T14:01:39;3.10;;;1.13;;
826;SDS011;395;48.132;11.608;2023-04-29T14:04:05;1.63;;;1.10;;
826;SDS011;395;48.132;11.608;2023-04-29T14:06:31;1.40;;;1.30;;
826;SDS011;395;48.132;11.608;2023-04-29T14:08:58;2.20;;;1.37;;
826;SDS011;395;48.132;11.608;2023-04-29T14:11:24;1.10;;;1.00;;
826;SDS011;395;48.132;11.608;2023-04-29T14:13:49;1.00;;;0.90;;
826;SDS011;395;48.132;11.608;2023-04-29T14:16:15;1.10;;;1.10;;
826;SDS011;395;48.132;11.608;2023-04-29T14:18:41;0.90;;;0.90;;
826;SDS011;395;48.132;11.608;2023-04-29T14:21:07;2.50;;;1.70;;
826;SDS011;395;48.132;11.608;2023-04-29T14:23:32;1.30;;;1.20;;
826;SDS011;395;48.132;11.608;2023-04-29T14:25:58;1.77;;;1.67;;
826;SDS011;395;48.132;11.608;2023-04-29T14:28:24;1.50;;;1.40;;
826;SDS011;395;48.132;11.608;2023-04-29T14:30:49;1.27;;;1.20;;
826;SDS011;395;48.132;11.608;2023-04-29T14:33:15;1.47;;;1.37;;
826;SDS011;395;48.132;11.608;2023-04-29T14:35:41;2.27;;;1.80;;
826;SDS011;395;48.132;11.608;2023-04-29T14:38:06;2.10;;;1.40;;
826;SDS011;395;48.132;11.608;2023-04-29T14:40:32;1.67;;;1.33;;
826;SDS011;395;48.132;11.608;2023-04-29T14:42:58;1.50;;;1.40;;
826;SDS011;395;48.132;11.608;2023-04-29T14:45:23;1.50;;;1.40;;
826;SDS011;395;48.132;11.608;2023-04-29T14:47:49;1.93;;;1.80;;
826;SDS011;395;48.132;11.608;2023-04-29T14:50:15;1.53;;;1.43;;
826;SDS011;395;48.132;11.608;2023-04-29T14:52:40;2.83;;;2.63;;
826;SDS011;395;48.132;11.608;2023-04-29T14:55:06;1.47;;;1.23;;
826;SDS011;395;48.132;11.608;2023-04-29T14:57:33;1.30;;;1.20;;
826;SDS011;395;48.132;11.608;2023-04-29T14:59:58;1.50;;;1.40;;
826;SDS011;395;48.132;11.608;2023-04-29T15:02:25;2.70;;;2.40;;
826;SDS011;395;48.132;11.608;2023-04-29T15:04:50;3.40;;;2.50;;
826;SDS011;395;48.132;11.608;2023-04-29T15:07:16;2.60;;;2.30;;
826;SDS011;395;48.132;11.608;2023-04-29T15:09:42;2.00;;;1.47;;
826;SDS011;395;48.132;11.608;2023-04-29T15:12:08;1.60;;;1.50;;
826;SDS011;395;48.132;11.608;2023-04-29T15:14:34;2.10;;;2.00;;
826;SDS011;395;48.132;11.608;2023-04-29T15:16:59;1.60;;;1.50;;
826;SDS011;395;48.132;11.608;2023-04-29T15:19:25;2.40;;;2.20;;
826;SDS011;395;48.132;11.608;2023-04-29T15:21:51;1.80;;;1.70;;
826;SDS011;395;48.132;11.608;2023-04-29T15:24:17;1.70;;;1.57;;
826;SDS011;395;48.132;11.608;2023-04-29T15:26:43;1.03;;;1.03;;
826;SDS011;395;48.132;11.608;2023-04-29T15:29:09;1.77;;;1.67;;
826;SDS011;395;48.132;11.608;2023-04-29T15:31:36;1.30;;;1.20;;
826;SDS011;395;48.132;11.608;2023-04-29T15:34:02;1.63;;;1.53;;
826;SDS011;395;48.132;11.608;2023-04-29T15:36:28;2.03;;;1.83;;
826;SDS011;395;48.132;11.608;2023-04-29T15:38:56;3.97;;;3.30;;
826;SDS011;395;48.132;11.608;2023-04-29T15:41:22;4.30;;;1.53;;
826;SDS011;395;48.132;11.608;2023-04-29T15:43:50;1.97;;;1.80;;
826;SDS011;395;48.132;11.608;2023-04-29T15:46:15;1.70;;;1.60;;
826;SDS011;395;48.132;11.608;2023-04-29T15:48:41;1.90;;;1.80;;
826;SDS011;395;48.132;11.608;2023-04-29T15:51:08;1.40;;;1.30;;
826;SDS011;395;48.132;11.608;2023-04-29T15:53:34;2.40;;;1.47;;
826;SDS011;395;48.132;11.608;2023-04-29T15:56:00;1.50;;;1.40;;